Bookmark and Share
Track history (hours):
 

Helen Bolten

Last reported at 2013-Nov-11 15:25 UTC. Time now 2014-Apr-20 08:17 UTC.
Position N 36°23' W 008°27'.
Warning: this ship's position is months out of date.

Length 157 m; draft 9.6 m.

Type: Cargo ship. MMSI: 636091889.

NotesDate/timePositionNaut miles runAvg speedWind from/ knotsBaromVisibWave heightAir tempDewpointWater temp
2013-Nov-11 15:25N 36°23' W 008°27'1311.5
2013-Nov-11 14:17N 36°27' W 008°42'911.4
2013-Nov-11 13:30N 36°30' W 008°53'1111.2
2013-Nov-11 12:32N 36°32' W 009°06'1110.6
2013-Nov-11 11:31N 36°36' W 009°19'1111.8
2013-Nov-11 10:33N 36°44' W 009°29'2311.2
2013-Nov-11 08:33N 37°05' W 009°38'2311.7
2013-Nov-11 06:33N 37°28' W 009°45'1211.3
2013-Nov-11 05:29N 37°40' W 009°48'1211.3
2013-Nov-11 04:24N 37°51' W 009°52'1011.3
2013-Nov-11 03:33N 38°01' W 009°54'1311.4
2013-Nov-11 02:26N 38°13' W 009°58'3411.3
2013-Nov-10 23:27N 38°46' W 010°06'1011.6
2013-Nov-10 22:33N 38°57' W 010°06'  
2013-Nov-07 14:31N 50°14' W 001°27'1212.4
2013-Nov-07 13:33N 50°17' W 001°09'73 9.9
2013-Nov-07 06:12N 50°37' E 000°40'911.6
2013-Nov-07 05:24N 50°42' E 000°53'25 8.6
2013-Nov-07 02:28N 50°58' E 001°23'5 5.7
2013-Nov-07 01:33N 51°02' E 001°29'6 6.3
2013-Nov-07 00:34N 51°06' E 001°36'4 4.4
2013-Nov-06 23:33N 51°07' E 001°43'8 7.7
2013-Nov-06 22:34N 51°03' E 001°53'1111.1
2013-Nov-06 21:34N 51°03' E 002°11'6 6.1
2013-Nov-06 20:33N 51°03' E 002°20'2 2.3
2013-Nov-06 19:31N 51°03' E 002°17'0 0.1
2013-Nov-06 18:03N 51°03' E 002°17'0 0.0
2013-Nov-06 17:27N 51°03' E 002°17'0 0.0
2013-Nov-06 16:27N 51°03' E 002°17'0 0.0
2013-Nov-06 15:27N 51°03' E 002°17'0 0.0
2013-Nov-06 14:33N 51°03' E 002°17'0 0.0
2013-Nov-06 13:33N 51°03' E 002°17'0 0.0
2013-Nov-06 05:27N 51°03' E 002°17'0 0.0
2013-Nov-06 03:33N 51°03' E 002°17'0 0.0
2013-Nov-06 02:30N 51°03' E 002°17'0 0.0
2013-Nov-06 01:30N 51°03' E 002°17'0 0.0
2013-Nov-06 00:30N 51°03' E 002°17'0 0.0
2013-Nov-05 22:30N 51°03' E 002°17'0 0.0
2013-Nov-05 19:30N 51°03' E 002°17'0 0.0
2013-Nov-05 18:12N 51°03' E 002°17'0 0.0
2013-Nov-05 17:30N 51°03' E 002°17'0 0.0
2013-Nov-05 16:15N 51°03' E 002°17'0 0.0
2013-Nov-05 14:33N 51°03' E 002°17'0 0.0
2013-Nov-05 13:33N 51°03' E 002°17'0 0.0
2013-Nov-05 12:27N 51°03' E 002°17'0 0.0
2013-Nov-05 11:18N 51°03' E 002°17'0 0.0
2013-Nov-05 10:30N 51°03' E 002°17'0 0.0
2013-Nov-05 07:30N 51°03' E 002°17'0 0.0
2013-Nov-05 06:33N 51°03' E 002°17'0 0.0
2013-Nov-05 05:21N 51°03' E 002°17'0 0.0
2013-Nov-05 04:30N 51°03' E 002°17'0 0.0
2013-Nov-05 03:09N 51°03' E 002°17'0 0.0
2013-Nov-05 02:06N 51°03' E 002°17'0 0.0
2013-Nov-05 01:33N 51°03' E 002°17'0 0.0
2013-Nov-05 00:30N 51°03' E 002°17'0 0.0
2013-Nov-04 23:33N 51°03' E 002°17'0 0.0
2013-Nov-04 22:30N 51°03' E 002°17'0 0.0
2013-Nov-04 21:24N 51°03' E 002°17'0 0.0
2013-Nov-04 20:30N 51°03' E 002°17'0 0.0
2013-Nov-04 19:21N 51°03' E 002°17'0 0.0
2013-Nov-04 18:24N 51°03' E 002°17'0 0.0
2013-Nov-04 17:24N 51°03' E 002°17'0 0.0
2013-Nov-04 15:30N 51°03' E 002°17'0 0.0
2013-Nov-04 13:21N 51°03' E 002°17'0 0.0
2013-Nov-04 11:12N 51°03' E 002°17'0 0.0
2013-Nov-04 10:21N 51°03' E 002°17'0 0.0
2013-Nov-04 09:27N 51°03' E 002°17'0 0.0
2013-Nov-04 08:28N 51°03' E 002°17'0 0.0
2013-Nov-04 07:33N 51°03' E 002°17'0 0.0
2013-Nov-04 06:15N 51°03' E 002°17'0 0.0
2013-Nov-04 05:03N 51°03' E 002°17'0 0.0
2013-Nov-04 04:03N 51°03' E 002°17'0 0.0
2013-Nov-04 02:15N 51°03' E 002°17'0 0.0
2013-Nov-04 01:15N 51°03' E 002°17'0 0.0
2013-Nov-04 00:30N 51°03' E 002°17'0 0.0
2013-Nov-03 23:30N 51°03' E 002°17'0 0.0
2013-Nov-03 22:27N 51°03' E 002°17'0 0.0
2013-Nov-03 21:33N 51°03' E 002°17'0 0.0
2013-Nov-03 20:24N 51°03' E 002°17'0 0.0
2013-Nov-03 19:33N 51°03' E 002°17'0 0.0
2013-Nov-03 18:12N 51°03' E 002°17'0 0.0
2013-Nov-03 17:33N 51°03' E 002°17'0 0.0
2013-Nov-03 16:12N 51°03' E 002°17'0 0.0
2013-Nov-03 15:15N 51°03' E 002°17'0 0.0
2013-Nov-03 14:24N 51°03' E 002°17'0 0.0
2013-Nov-03 13:30N 51°03' E 002°17'0 0.0
2013-Nov-03 12:27N 51°03' E 002°17'0 0.0
2013-Nov-03 11:03N 51°03' E 002°17'0 0.0
2013-Nov-03 10:33N 51°03' E 002°17'0 0.0
2013-Nov-03 09:18N 51°03' E 002°17'0 0.0
2013-Nov-03 08:24N 51°03' E 002°17'0 0.0
2013-Nov-03 07:27N 51°03' E 002°17'0 0.0
2013-Nov-03 06:03N 51°03' E 002°17'0 0.0
2013-Nov-03 05:30N 51°03' E 002°17'0 0.0
2013-Nov-03 04:09N 51°03' E 002°17'0 0.0
2013-Nov-03 03:30N 51°03' E 002°17'0 0.0
2013-Nov-03 02:18N 51°03' E 002°17'0 0.0
2013-Nov-03 01:12N 51°03' E 002°17'0 0.0
2013-Nov-03 00:27N 51°03' E 002°17'0 0.0
2013-Nov-02 23:24N 51°03' E 002°17'0 0.0
2013-Nov-02 22:33N 51°03' E 002°17'1 1.3
2013-Nov-02 21:33N 51°03' E 002°19'2 1.7
2013-Nov-02 20:33N 51°03' E 002°21'8 8.3
2013-Nov-02 19:32N 51°03' E 002°08'1110.5
2013-Nov-02 18:32N 51°03' E 001°51'2 1.9
2013-Nov-02 17:30N 51°05' E 001°51'0 0.0
2013-Nov-02 16:33N 51°05' E 001°51'0 0.1
2013-Nov-02 15:30N 51°05' E 001°51'0 0.1
2013-Nov-02 14:33N 51°05' E 001°51'0 0.0
2013-Nov-02 13:31N 51°05' E 001°51'0 0.0
2013-Nov-02 12:33N 51°05' E 001°51'0 0.0
2013-Nov-02 11:33N 51°05' E 001°51'0 0.0
2013-Nov-02 10:30N 51°05' E 001°51'0 0.0
2013-Nov-02 09:27N 51°05' E 001°51'0 0.1
2013-Nov-02 08:33N 51°05' E 001°51'0 0.2
2013-Nov-02 07:34N 51°05' E 001°50'0 0.0
2013-Nov-02 06:30N 51°05' E 001°50'0 0.0
2013-Nov-02 05:33N 51°05' E 001°50'0 0.0
2013-Nov-02 04:33N 51°05' E 001°50'0 0.0
2013-Nov-02 03:33N 51°05' E 001°50'0 0.1
2013-Nov-02 02:22N 51°05' E 001°50'0 0.0
2013-Nov-02 00:30N 51°05' E 001°51'0 0.0
2013-Nov-01 23:27N 51°05' E 001°51'0 0.0
2013-Nov-01 22:30N 51°05' E 001°51'0 0.0
2013-Nov-01 21:33N 51°05' E 001°51'0 0.0
2013-Nov-01 20:30N 51°05' E 001°51'0 0.1
2013-Nov-01 19:03N 51°05' E 001°50'0 0.1
2013-Nov-01 18:30N 51°05' E 001°50'0 0.0
2013-Nov-01 17:33N 51°05' E 001°50'0 0.0
2013-Nov-01 16:33N 51°05' E 001°50'  

Dump ship's entire track history

sailing weather and tide predictions

Helen Bolten — A8UE3 — position and weather